Terminal Aerodrome Forecast
Issued by NWS

Home | Current Version | Previous Version | Text Only | Print | Product List | Glossary On
Versions: 1 2 3 4 5 6 7 8 9 10 11 12 13 14 15 16 17 18 19 20 21 22
728
FTUS43 KDTX 151731
TAFDET
TAF
KDET 151731Z 1518/1618 23012G21KT 3SM -SHSN OVC020
      TEMPO 1518/1521 1SM -SHSN OVC015
     FM152100 27012KT 5SM -SHSN OVC015
     FM152300 26014KT P6SM -SHSN OVC025
     FM160600 26008KT P6SM -SHSN OVC035
     FM161100 26006KT 3SM -SHSN OVC035=

USA.gov is the U.S. government's official web portal to all federal, state and local government web resources and services.